Time;durP1;ratioP1;P1;durP2;ratioP2;P2;SDS_P1;SDS_P2;PMS_P1;PMS_P2;Temp;Humidity;BMP_temperature;BMP_pressure;BME280_temperature;BME280_humidity;BME280_pressure;Samples;Min_cycle;Max_cycle;Signal;HPM_P1;HPM_P2
2022/05/21 00:00:42;;;;;;;5.55;2.72;;;;;;;;;;5082702;28;20035;-73
2022/05/21 00:03:09;;;;;;;3.92;2.60;;;;;;;;;;5084608;28;20024;-73
2022/05/21 00:05:36;;;;;;;4.45;2.65;;;;;;;;;;5084371;28;20584;-73
2022/05/21 00:08:04;;;;;;;6.82;2.60;;;;;;;;;;5084418;28;20020;-73
2022/05/21 00:10:31;;;;;;;5.97;2.75;;;;;;;;;;5083312;28;20090;-73
2022/05/21 00:12:58;;;;;;;3.22;2.55;;;;;;;;;;5084241;28;20024;-73
2022/05/21 00:15:25;;;;;;;5.28;2.70;;;;;;;;;;5084332;28;20057;-73
2022/05/21 00:17:51;;;;;;;8.27;3.08;;;;;;;;;;5084427;28;20013;-73
2022/05/21 00:23:10;;;;;;;5.72;2.80;;;;;;;;;;5084071;28;20082;-73
2022/05/21 00:25:36;;;;;;;3.33;2.58;;;;;;;;;;5084009;28;20085;-73
2022/05/21 00:28:02;;;;;;;3.67;2.90;;;;;;;;;;5084006;28;20024;-73
2022/05/21 00:30:29;;;;;;;3.70;3.05;;;;;;;;;;5102073;28;20483;-73
2022/05/21 00:32:55;;;;;;;11.35;3.25;;;;;;;;;;5102969;28;20032;-73
2022/05/21 00:35:21;;;;;;;5.75;3.80;;;;;;;;;;5102686;28;20109;-73
2022/05/21 00:37:47;;;;;;;6.10;3.00;;;;;;;;;;5106158;28;20031;-73
2022/05/21 00:40:13;;;;;;;4.35;3.05;;;;;;;;;;5108392;28;20065;-73
2022/05/21 00:42:43;;;;;;;6.30;2.97;;;;;;;;;;5105350;28;20093;-73
2022/05/21 00:45:09;;;;;;;3.92;2.80;;;;;;;;;;5103752;28;20037;-73
2022/05/21 00:47:36;;;;;;;9.95;3.83;;;;;;;;;;5104160;28;20362;-73
2022/05/21 00:50:02;;;;;;;5.32;2.53;;;;;;;;;;5092629;28;20028;-73
2022/05/21 00:52:28;;;;;;;8.68;2.85;;;;;;;;;;5085746;28;20020;-73
2022/05/21 00:54:57;;;;;;;5.05;2.72;;;;;;;;;;5085214;28;20024;-73
2022/05/21 00:57:26;;;;;;;4.85;2.70;;;;;;;;;;5084292;28;20577;-72
2022/05/21 01:00:13;;;;;;;6.05;2.95;;;;;;;;;;5085603;28;20220;-72
2022/05/21 01:02:49;;;;;;;3.58;2.35;;;;;;;;;;5085442;28;20032;-72
2022/05/21 01:05:18;;;;;;;4.80;2.95;;;;;;;;;;5085089;28;20042;-73
2022/05/21 01:07:45;;;;;;;4.20;2.78;;;;;;;;;;5083349;28;20416;-73
2022/05/21 01:10:13;;;;;;;6.55;2.75;;;;;;;;;;5085740;28;20089;-72
2022/05/21 01:12:41;;;;;;;6.93;2.63;;;;;;;;;;5096874;28;20035;-73
2022/05/21 01:15:10;;;;;;;8.25;3.22;;;;;;;;;;5101699;28;20068;-73
2022/05/21 01:17:37;;;;;;;3.55;2.60;;;;;;;;;;5101221;27;20501;-73
2022/05/21 01:20:13;;;;;;;6.20;2.95;;;;;;;;;;5095745;28;20516;-73
2022/05/21 01:22:43;;;;;;;3.13;2.50;;;;;;;;;;5091980;28;20396;-73
2022/05/21 01:25:10;;;;;;;3.40;2.38;;;;;;;;;;5089708;28;20423;-73
2022/05/21 01:27:36;;;;;;;7.15;2.92;;;;;;;;;;5091550;28;20442;-73
2022/05/21 01:30:03;;;;;;;5.20;2.97;;;;;;;;;;5087575;28;20020;-73
2022/05/21 01:32:30;;;;;;;3.13;2.60;;;;;;;;;;5089159;28;20023;-73
2022/05/21 01:34:56;;;;;;;3.58;2.42;;;;;;;;;;5089202;28;20057;-73
2022/05/21 01:37:23;;;;;;;4.65;2.40;;;;;;;;;;5094248;28;20020;-73
2022/05/21 01:39:49;;;;;;;4.07;2.83;;;;;;;;;;5091884;28;20020;-73
2022/05/21 01:42:15;;;;;;;4.13;2.10;;;;;;;;;;5097450;28;20032;-73
2022/05/21 01:44:42;;;;;;;6.20;2.30;;;;;;;;;;5097001;28;20020;-73
2022/05/21 01:47:17;;;;;;;4.05;2.25;;;;;;;;;;5096686;28;20027;-73
2022/05/21 01:49:43;;;;;;;4.65;2.20;;;;;;;;;;5097733;28;20036;-73
2022/05/21 01:52:10;;;;;;;4.00;2.10;;;;;;;;;;5097828;28;20035;-73
2022/05/21 01:54:37;;;;;;;5.85;2.33;;;;;;;;;;5091230;28;20031;-73
2022/05/21 01:57:04;;;;;;;5.43;2.60;;;;;;;;;;5093412;28;20063;-73
2022/05/21 01:59:30;;;;;;;6.93;2.30;;;;;;;;;;5095606;28;20020;-73
2022/05/21 02:01:56;;;;;;;4.45;2.20;;;;;;;;;;5098626;28;20154;-73
2022/05/21 02:04:23;;;;;;;3.00;2.10;;;;;;;;;;5095129;28;20389;-73
2022/05/21 02:06:49;;;;;;;4.57;2.35;;;;;;;;;;5097924;28;20030;-73
2022/05/21 02:09:16;;;;;;;13.30;2.30;;;;;;;;;;5099089;28;20024;-72
2022/05/21 02:11:43;;;;;;;4.20;2.13;;;;;;;;;;5092902;28;20047;-73
2022/05/21 02:14:10;;;;;;;2.83;2.20;;;;;;;;;;5094427;27;20027;-73
2022/05/21 02:16:36;;;;;;;4.60;2.00;;;;;;;;;;5090803;28;20126;-72
2022/05/21 02:19:04;;;;;;;4.70;1.90;;;;;;;;;;5097118;27;20047;-73
2022/05/21 02:21:31;;;;;;;3.60;2.30;;;;;;;;;;5112452;27;20446;-73
2022/05/21 02:23:57;;;;;;;4.22;2.17;;;;;;;;;;5094241;27;20023;-73
2022/05/21 02:26:23;;;;;;;4.45;2.53;;;;;;;;;;5087523;28;20032;-72
2022/05/21 02:28:50;;;;;;;5.45;2.10;;;;;;;;;;5094240;27;20499;-73
2022/05/21 02:31:16;;;;;;;5.22;2.53;;;;;;;;;;5092159;28;20027;-73
2022/05/21 02:33:43;;;;;;;3.92;2.13;;;;;;;;;;5094223;28;20016;-73
2022/05/21 02:36:10;;;;;;;3.63;2.25;;;;;;;;;;5094881;27;20051;-73
2022/05/21 02:41:21;;;;;;;3.80;1.90;;;;;;;;;;5095145;28;20054;-73
2022/05/21 02:43:48;;;;;;;3.17;1.90;;;;;;;;;;5092442;28;20031;-73
2022/05/21 02:46:15;;;;;;;4.70;2.25;;;;;;;;;;5092822;28;20028;-73
2022/05/21 02:48:42;;;;;;;10.77;2.15;;;;;;;;;;5086924;28;20524;-73
2022/05/21 02:51:09;;;;;;;4.07;2.20;;;;;;;;;;5093028;28;20060;-72
2022/05/21 02:53:36;;;;;;;4.20;2.05;;;;;;;;;;5095232;27;20023;-73
2022/05/21 02:56:06;;;;;;;3.72;2.40;;;;;;;;;;5098357;28;20082;-73
2022/05/21 02:58:32;;;;;;;4.00;1.90;;;;;;;;;;5091932;28;20032;-73
2022/05/21 03:00:59;;;;;;;2.60;2.03;;;;;;;;;;5092390;28;20036;-72
2022/05/21 03:03:25;;;;;;;6.07;2.92;;;;;;;;;;5095046;28;20051;-73
2022/05/21 03:05:51;;;;;;;2.65;2.10;;;;;;;;;;5094230;28;20523;-72
2022/05/21 03:11:22;;;;;;;3.70;2.28;;;;;;;;;;5060352;28;20069;-73
2022/05/21 03:13:49;;;;;;;5.95;2.20;;;;;;;;;;5061803;28;20058;-73
2022/05/21 03:16:15;;;;;;;4.55;2.03;;;;;;;;;;5078084;28;20031;-74
2022/05/21 03:18:41;;;;;;;5.50;2.25;;;;;;;;;;5099873;27;20038;-73
2022/05/21 03:21:07;;;;;;;4.15;2.20;;;;;;;;;;5080866;28;20327;-73
2022/05/21 03:23:33;;;;;;;4.18;2.30;;;;;;;;;;5094117;28;20028;-73
2022/05/21 03:25:59;;;;;;;4.30;2.40;;;;;;;;;;5100223;28;20421;-74
2022/05/21 03:28:25;;;;;;;6.05;2.35;;;;;;;;;;5100685;28;20028;-73
2022/05/21 03:30:52;;;;;;;2.97;2.03;;;;;;;;;;5099340;28;20581;-73
2022/05/21 03:33:18;;;;;;;4.00;1.90;;;;;;;;;;5100467;28;20533;-73
2022/05/21 03:35:44;;;;;;;5.30;2.22;;;;;;;;;;5100353;28;20026;-73
2022/05/21 03:38:11;;;;;;;5.07;2.20;;;;;;;;;;5100325;28;20028;-72
2022/05/21 03:40:37;;;;;;;4.47;2.50;;;;;;;;;;5098985;28;20535;-73
2022/05/21 03:43:04;;;;;;;2.88;2.35;;;;;;;;;;5097347;28;20065;-74
2022/05/21 03:45:30;;;;;;;2.80;1.75;;;;;;;;;;5100266;28;20026;-73
2022/05/21 03:47:56;;;;;;;5.32;2.28;;;;;;;;;;5080542;28;20060;-73
2022/05/21 03:50:24;;;;;;;2.75;2.10;;;;;;;;;;5079901;28;20560;-73
2022/05/21 03:52:50;;;;;;;4.65;2.17;;;;;;;;;;5078478;28;20032;-73
2022/05/21 03:55:17;;;;;;;3.60;2.17;;;;;;;;;;5079958;28;20102;-72
2022/05/21 03:57:44;;;;;;;3.67;2.10;;;;;;;;;;5079859;28;20059;-73
2022/05/21 04:00:12;;;;;;;3.90;2.00;;;;;;;;;;5079727;28;20035;-73
2022/05/21 04:02:38;;;;;;;4.55;2.45;;;;;;;;;;5079478;28;20031;-72
2022/05/21 04:05:06;;;;;;;5.30;2.17;;;;;;;;;;5077564;28;20605;-73
2022/05/21 04:07:32;;;;;;;4.53;2.00;;;;;;;;;;5080361;28;20028;-73
2022/05/21 04:09:59;;;;;;;5.50;2.45;;;;;;;;;;5079268;28;21033;-73
2022/05/21 04:12:25;;;;;;;4.13;2.15;;;;;;;;;;5081312;28;20024;-73
2022/05/21 04:14:51;;;;;;;9.57;2.70;;;;;;;;;;5090278;28;20034;-73
2022/05/21 04:17:17;;;;;;;6.35;2.38;;;;;;;;;;5104481;28;20031;-73
2022/05/21 04:19:43;;;;;;;3.80;2.22;;;;;;;;;;5103785;28;20442;-76
2022/05/21 04:22:10;;;;;;;4.95;2.47;;;;;;;;;;5101930;28;20602;-73
2022/05/21 04:24:36;;;;;;;3.85;2.10;;;;;;;;;;5104194;28;20062;-73
2022/05/21 04:27:02;;;;;;;5.68;2.38;;;;;;;;;;5104172;28;20078;-73
2022/05/21 04:29:28;;;;;;;5.30;2.28;;;;;;;;;;5104342;28;20027;-73
2022/05/21 04:31:54;;;;;;;8.05;2.30;;;;;;;;;;5104302;28;20495;-73
2022/05/21 04:34:20;;;;;;;5.85;2.28;;;;;;;;;;5103640;28;20027;-72
2022/05/21 04:36:46;;;;;;;4.50;2.53;;;;;;;;;;5101977;28;20028;-73
2022/05/21 04:39:13;;;;;;;10.05;3.03;;;;;;;;;;5104589;28;20020;-73
2022/05/21 04:41:39;;;;;;;9.98;2.95;;;;;;;;;;5102351;28;20384;-73
2022/05/21 04:44:07;;;;;;;6.68;2.90;;;;;;;;;;5102867;28;20035;-73
2022/05/21 04:46:35;;;;;;;7.65;3.13;;;;;;;;;;5102259;28;20242;-73
2022/05/21 04:49:01;;;;;;;7.30;3.33;;;;;;;;;;5087966;28;20020;-72
2022/05/21 04:51:27;;;;;;;7.00;3.28;;;;;;;;;;5083414;28;20031;-73
2022/05/21 04:53:53;;;;;;;6.88;3.65;;;;;;;;;;5083715;28;20024;-73
2022/05/21 04:56:19;;;;;;;7.07;4.90;;;;;;;;;;5081672;28;20055;-72
2022/05/21 04:58:46;;;;;;;15.13;5.82;;;;;;;;;;5082872;28;20016;-73
2022/05/21 05:01:12;;;;;;;12.00;6.60;;;;;;;;;;5083456;28;20491;-73
2022/05/21 05:03:38;;;;;;;14.55;7.90;;;;;;;;;;5082982;28;20031;-73
2022/05/21 05:06:06;;;;;;;12.23;8.00;;;;;;;;;;5082239;28;20510;-73
2022/05/21 05:08:32;;;;;;;21.35;10.82;;;;;;;;;;5082108;28;20027;-71
2022/05/21 05:10:58;;;;;;;20.35;10.65;;;;;;;;;;5082930;28;20074;-71
2022/05/21 05:13:24;;;;;;;18.40;9.73;;;;;;;;;;5089833;28;20556;-72
2022/05/21 05:15:51;;;;;;;20.48;8.18;;;;;;;;;;5102910;28;20044;-71
2022/05/21 05:18:18;;;;;;;17.30;8.98;;;;;;;;;;5103259;28;20515;-72
2022/05/21 05:20:45;;;;;;;14.32;8.73;;;;;;;;;;5102828;28;20631;-71
2022/05/21 05:23:11;;;;;;;14.73;8.80;;;;;;;;;;5100600;28;20459;-71
2022/05/21 05:25:37;;;;;;;25.92;9.05;;;;;;;;;;5103248;28;20107;-73
2022/05/21 05:28:04;;;;;;;15.15;9.57;;;;;;;;;;5102873;28;20031;-72
2022/05/21 05:30:31;;;;;;;12.82;8.35;;;;;;;;;;5103078;28;20023;-71
2022/05/21 05:32:57;;;;;;;15.93;8.20;;;;;;;;;;5102902;28;20023;-72
2022/05/21 05:35:23;;;;;;;13.38;8.27;;;;;;;;;;5084114;28;20086;-73
2022/05/21 05:37:49;;;;;;;12.40;7.65;;;;;;;;;;5092402;27;20100;-73
2022/05/21 05:40:18;;;;;;;15.65;8.88;;;;;;;;;;5103078;28;20052;-73
2022/05/21 05:42:44;;;;;;;16.10;9.00;;;;;;;;;;5099966;28;20040;-71
2022/05/21 05:45:11;;;;;;;12.50;8.75;;;;;;;;;;5101075;28;20039;-72
2022/05/21 05:47:37;;;;;;;10.30;7.10;;;;;;;;;;5086359;28;20044;-74
2022/05/21 05:50:04;;;;;;;11.18;6.97;;;;;;;;;;5084773;28;20024;-74
2022/05/21 05:52:30;;;;;;;11.52;6.40;;;;;;;;;;5079929;28;20533;-75
2022/05/21 05:54:56;;;;;;;9.35;5.40;;;;;;;;;;5081723;28;20614;-74
2022/05/21 05:57:23;;;;;;;10.10;5.38;;;;;;;;;;5081390;28;20633;-74
2022/05/21 05:59:50;;;;;;;11.57;5.13;;;;;;;;;;5080811;28;20069;-74
2022/05/21 06:05:06;;;;;;;7.05;3.42;;;;;;;;;;5082923;28;20078;-71
2022/05/21 06:07:32;;;;;;;29.77;9.70;;;;;;;;;;5082777;28;20043;-71
2022/05/21 06:10:02;;;;;;;19.80;9.77;;;;;;;;;;5087748;28;20100;-71
2022/05/21 06:12:29;;;;;;;27.48;10.55;;;;;;;;;;5082364;28;20044;-71
2022/05/21 06:14:55;;;;;;;27.20;9.50;;;;;;;;;;5085687;28;20112;-71
2022/05/21 06:17:21;;;;;;;20.95;7.50;;;;;;;;;;5094251;28;20027;-75
2022/05/21 06:19:48;;;;;;;35.63;10.48;;;;;;;;;;5099911;28;20040;-72
2022/05/21 06:22:14;;;;;;;48.10;11.52;;;;;;;;;;5088810;28;20909;-72
2022/05/21 06:24:40;;;;;;;30.70;7.93;;;;;;;;;;5083542;28;20097;-72
2022/05/21 06:27:07;;;;;;;21.10;4.93;;;;;;;;;;5083214;28;20032;-72
2022/05/21 06:29:35;;;;;;;19.60;7.53;;;;;;;;;;5083910;28;20031;-72
2022/05/21 06:32:02;;;;;;;23.35;8.60;;;;;;;;;;5083700;28;20472;-72
2022/05/21 06:34:28;;;;;;;19.15;7.07;;;;;;;;;;5082938;28;20473;-72
2022/05/21 06:36:54;;;;;;;20.00;6.82;;;;;;;;;;5082221;28;20032;-72
2022/05/21 06:39:20;;;;;;;18.45;7.45;;;;;;;;;;5091307;28;20518;-72
2022/05/21 06:41:47;;;;;;;17.17;6.97;;;;;;;;;;5103763;28;20032;-72
2022/05/21 06:44:13;;;;;;;13.25;5.53;;;;;;;;;;5104127;28;20028;-72
2022/05/21 06:46:39;;;;;;;18.08;7.63;;;;;;;;;;5103814;28;20084;-71
2022/05/21 06:49:05;;;;;;;8.52;3.22;;;;;;;;;;5103388;28;20026;-72
2022/05/21 06:51:31;;;;;;;4.78;2.53;;;;;;;;;;5102460;28;20023;-71
2022/05/21 06:53:57;;;;;;;3.58;2.90;;;;;;;;;;5103488;28;20096;-71
2022/05/21 06:56:23;;;;;;;3.58;2.60;;;;;;;;;;5103458;28;20019;-71
2022/05/21 06:58:51;;;;;;;7.68;2.95;;;;;;;;;;5103460;28;20061;-71
2022/05/21 07:01:17;;;;;;;4.70;2.83;;;;;;;;;;5088711;28;20764;-71
2022/05/21 07:03:43;;;;;;;5.30;3.00;;;;;;;;;;5082916;28;20028;-72
2022/05/21 07:08:54;;;;;;;4.95;2.50;;;;;;;;;;5082715;28;20563;-77
2022/05/21 07:11:20;;;;;;;4.50;2.25;;;;;;;;;;5091715;28;20093;-75
2022/05/21 07:13:47;;;;;;;3.30;2.50;;;;;;;;;;5081036;28;20066;-72
2022/05/21 07:16:13;;;;;;;4.07;2.20;;;;;;;;;;5082517;28;20472;-72
2022/05/21 07:18:39;;;;;;;5.00;2.83;;;;;;;;;;5082619;28;20613;-72
2022/05/21 07:21:10;;;;;;;10.23;3.13;;;;;;;;;;5083024;28;20046;-72
2022/05/21 07:23:37;;;;;;;8.15;3.13;;;;;;;;;;5081378;28;20027;-73
2022/05/21 07:26:03;;;;;;;7.25;3.70;;;;;;;;;;5082553;28;20031;-72
2022/05/21 07:28:29;;;;;;;7.10;3.25;;;;;;;;;;5082797;28;20020;-73
2022/05/21 07:30:55;;;;;;;8.90;3.60;;;;;;;;;;5082822;28;20162;-73
2022/05/21 07:33:21;;;;;;;7.43;3.60;;;;;;;;;;5089884;28;20031;-73
2022/05/21 07:35:48;;;;;;;4.93;3.13;;;;;;;;;;5101030;28;20523;-72
2022/05/21 07:38:15;;;;;;;5.70;2.90;;;;;;;;;;5102795;28;20830;-72
2022/05/21 07:40:42;;;;;;;7.68;2.70;;;;;;;;;;5102595;28;20102;-74
2022/05/21 07:43:18;;;;;;;4.95;2.90;;;;;;;;;;5102682;28;20027;-72
2022/05/21 07:45:45;;;;;;;5.68;3.15;;;;;;;;;;5098753;28;20122;-72
2022/05/21 07:48:13;;;;;;;3.17;2.53;;;;;;;;;;5101288;28;20016;-74
2022/05/21 07:50:40;;;;;;;6.47;2.90;;;;;;;;;;5102521;27;20034;-76
2022/05/21 07:53:27;;;;;;;4.20;2.90;;;;;;;;;;5102636;28;20038;-77
2022/05/21 07:55:54;;;;;;;5.68;3.25;;;;;;;;;;5096447;28;20032;-72
2022/05/21 07:58:21;;;;;;;6.40;3.40;;;;;;;;;;5079349;28;20024;-71
2022/05/21 08:00:48;;;;;;;4.03;2.80;;;;;;;;;;5092617;28;20052;-72
2022/05/21 08:03:14;;;;;;;5.47;2.90;;;;;;;;;;5097758;28;20031;-72
2022/05/21 08:05:41;;;;;;;3.40;2.70;;;;;;;;;;5101840;28;20051;-72
2022/05/21 08:08:08;;;;;;;6.25;3.00;;;;;;;;;;5093839;28;20490;-73
2022/05/21 08:10:35;;;;;;;7.75;2.67;;;;;;;;;;5083598;28;20746;-72
2022/05/21 08:13:01;;;;;;;6.47;2.90;;;;;;;;;;5081101;28;20030;-72
2022/05/21 08:15:27;;;;;;;5.00;3.08;;;;;;;;;;5092183;28;20085;-75
2022/05/21 08:17:54;;;;;;;4.22;2.78;;;;;;;;;;5081733;28;20044;-72
2022/05/21 08:20:20;;;;;;;5.25;2.70;;;;;;;;;;5086562;28;20028;-75
2022/05/21 08:28:16;;;;;;;6.15;3.10;;;;;;;;;;5084879;28;20047;-77
2022/05/21 08:30:43;;;;;;;3.10;2.47;;;;;;;;;;5080529;28;20644;-76
2022/05/21 08:33:10;;;;;;;4.75;2.70;;;;;;;;;;5079418;28;20470;-73
2022/05/21 08:35:38;;;;;;;5.88;3.13;;;;;;;;;;5079214;28;20047;-72
2022/05/21 08:46:38;;;;;;;4.80;3.15;;;;;;;;;;4847765;28;20564;-74
2022/05/21 08:49:06;;;;;;;8.20;3.35;;;;;;;;;;4999335;28;20026;-84
2022/05/21 08:51:37;;;;;;;4.15;3.08;;;;;;;;;;4999359;28;20510;-84
2022/05/21 08:54:04;;;;;;;6.43;2.85;;;;;;;;;;5000216;28;20033;-78
2022/05/21 08:56:31;;;;;;;4.45;2.95;;;;;;;;;;4998930;28;20021;-72
2022/05/21 08:59:01;;;;;;;8.30;3.50;;;;;;;;;;4995801;28;20033;-86
2022/05/21 09:01:27;;;;;;;5.00;3.08;;;;;;;;;;4993757;28;20026;-74
2022/05/21 09:03:56;;;;;;;5.70;3.30;;;;;;;;;;5003197;28;20080;-76
2022/05/21 09:06:25;;;;;;;11.90;3.50;;;;;;;;;;5003220;28;20537;-72
2022/05/21 09:09:09;;;;;;;10.65;4.00;;;;;;;;;;4999739;28;20662;-71
2022/05/21 09:11:46;;;;;;;7.72;3.25;;;;;;;;;;5001647;28;20022;-72
2022/05/21 09:14:17;;;;;;;4.15;2.92;;;;;;;;;;5002658;28;20033;-72
2022/05/21 09:16:56;;;;;;;6.20;2.97;;;;;;;;;;5002726;28;20030;-72
2022/05/21 09:19:26;;;;;;;4.88;3.33;;;;;;;;;;5002383;28;20417;-71
2022/05/21 09:21:56;;;;;;;6.78;3.30;;;;;;;;;;5001450;28;20048;-71
2022/05/21 09:24:37;;;;;;;10.75;3.72;;;;;;;;;;5002690;28;20038;-74
2022/05/21 09:27:04;;;;;;;7.32;3.53;;;;;;;;;;5002525;28;20140;-72
2022/05/21 09:29:33;;;;;;;8.95;3.40;;;;;;;;;;5002397;28;20030;-75
2022/05/21 09:32:00;;;;;;;4.40;2.85;;;;;;;;;;5002652;28;20026;-72
2022/05/21 09:34:28;;;;;;;6.97;2.72;;;;;;;;;;4992713;28;20113;-74
2022/05/21 09:36:55;;;;;;;4.47;2.75;;;;;;;;;;4981407;28;20113;-73
2022/05/21 09:39:41;;;;;;;4.22;2.95;;;;;;;;;;4997356;28;20184;-72
2022/05/21 09:42:08;;;;;;;4.78;3.28;;;;;;;;;;5004450;28;20104;-72
2022/05/21 09:47:24;;;;;;;5.50;2.95;;;;;;;;;;4994481;28;20134;-76
2022/05/21 09:50:05;;;;;;;7.43;3.25;;;;;;;;;;4982387;28;20027;-76
2022/05/21 09:52:32;;;;;;;5.65;3.08;;;;;;;;;;4982515;28;20026;-75
2022/05/21 09:54:59;;;;;;;4.65;2.97;;;;;;;;;;5002048;28;20060;-75
2022/05/21 09:57:31;;;;;;;3.92;2.85;;;;;;;;;;4981151;28;20022;-75
2022/05/21 10:00:12;;;;;;;8.80;2.92;;;;;;;;;;4979782;28;20084;-78
2022/05/21 10:02:41;;;;;;;5.55;3.42;;;;;;;;;;4980235;28;20646;-76
2022/05/21 10:05:08;;;;;;;7.47;3.17;;;;;;;;;;4981130;28;20133;-80
2022/05/21 10:13:11;;;;;;;7.65;3.50;;;;;;;;;;4982097;28;20145;-83
2022/05/21 10:15:39;;;;;;;9.73;3.22;;;;;;;;;;4989909;28;20091;-76
2022/05/21 10:18:12;;;;;;;6.45;3.42;;;;;;;;;;4988561;28;20062;-78
2022/05/21 10:20:43;;;;;;;3.60;2.90;;;;;;;;;;4982386;28;20050;-78
2022/05/21 10:23:34;;;;;;;8.25;2.90;;;;;;;;;;4980592;28;20084;-79
2022/05/21 10:26:12;;;;;;;6.20;3.60;;;;;;;;;;4983482;28;20035;-77
2022/05/21 10:28:54;;;;;;;6.82;3.38;;;;;;;;;;4995973;28;20025;-77
2022/05/21 10:31:33;;;;;;;6.95;2.78;;;;;;;;;;4985347;28;20038;-76
2022/05/21 10:34:12;;;;;;;5.72;3.15;;;;;;;;;;4997201;28;20676;-75
2022/05/21 10:36:48;;;;;;;7.88;3.17;;;;;;;;;;5001523;28;20032;-81
2022/05/21 10:39:14;;;;;;;3.47;2.88;;;;;;;;;;5001347;28;20022;-82
2022/05/21 10:41:47;;;;;;;3.08;2.65;;;;;;;;;;4984059;28;20042;-78
2022/05/21 10:44:16;;;;;;;4.53;2.80;;;;;;;;;;4981722;28;20088;-78
2022/05/21 10:46:45;;;;;;;4.70;2.67;;;;;;;;;;4980077;28;20046;-76
2022/05/21 10:49:25;;;;;;;4.18;2.83;;;;;;;;;;4981980;28;20027;-77
2022/05/21 10:52:02;;;;;;;6.22;2.80;;;;;;;;;;4981559;28;20030;-77
2022/05/21 10:54:44;;;;;;;5.05;3.05;;;;;;;;;;4982008;28;20106;-76
2022/05/21 10:57:20;;;;;;;6.88;2.72;;;;;;;;;;4999011;28;20029;-79
2022/05/21 10:59:50;;;;;;;4.68;2.92;;;;;;;;;;4983432;28;20092;-77
2022/05/21 11:02:19;;;;;;;4.68;2.70;;;;;;;;;;4989979;28;20042;-72
2022/05/21 11:04:45;;;;;;;4.55;2.80;;;;;;;;;;4999515;28;20025;-73
2022/05/21 11:07:14;;;;;;;5.28;2.95;;;;;;;;;;5000803;28;20092;-71
2022/05/21 11:09:40;;;;;;;6.15;2.53;;;;;;;;;;5000884;28;20076;-74
2022/05/21 11:12:14;;;;;;;4.10;2.72;;;;;;;;;;5001015;28;20457;-72
2022/05/21 11:14:40;;;;;;;4.40;2.50;;;;;;;;;;4999332;28;20579;-75
2022/05/21 11:17:25;;;;;;;5.53;2.75;;;;;;;;;;4998915;28;20036;-73
2022/05/21 11:20:00;;;;;;;4.90;3.13;;;;;;;;;;5000765;28;20037;-73
2022/05/21 11:22:33;;;;;;;5.45;2.30;;;;;;;;;;4999211;28;20078;-74
2022/05/21 11:25:25;;;;;;;4.72;2.40;;;;;;;;;;5000297;28;20030;-75
2022/05/21 11:28:11;;;;;;;3.53;2.80;;;;;;;;;;4983325;28;20516;-72
2022/05/21 11:30:37;;;;;;;4.75;2.30;;;;;;;;;;5000350;28;20036;-71
2022/05/21 11:38:42;;;;;;;5.85;2.35;;;;;;;;;;5000526;28;20088;-72
2022/05/21 11:41:25;;;;;;;4.03;2.43;;;;;;;;;;4992059;28;20576;-73
2022/05/21 11:43:54;;;;;;;4.57;2.38;;;;;;;;;;4979229;28;20045;-72
2022/05/21 11:46:26;;;;;;;4.97;2.30;;;;;;;;;;4980692;28;20061;-73
2022/05/21 11:48:52;;;;;;;;;;;;;;;;;;4981311;28;20026;-72
2022/05/21 11:51:19;;;;;;;4.47;2.63;;;;;;;;;;4984935;28;20485;-72
2022/05/21 11:53:46;;;;;;;3.50;2.30;;;;;;;;;;4999977;28;20057;-72
2022/05/21 11:56:13;;;;;;;5.70;2.20;;;;;;;;;;5000122;28;20037;-73
2022/05/21 11:58:58;;;;;;;4.03;2.35;;;;;;;;;;4999742;28;20056;-73
2022/05/21 12:01:39;;;;;;;2.47;2.05;;;;;;;;;;4998517;28;20033;-73
2022/05/21 12:04:06;;;;;;;3.92;2.33;;;;;;;;;;4999741;28;20021;-73
2022/05/21 12:06:40;;;;;;;3.38;2.42;;;;;;;;;;4998889;28;20046;-74
2022/05/21 12:09:11;;;;;;;6.35;2.65;;;;;;;;;;4984867;28;20057;-73
2022/05/21 12:11:39;;;;;;;5.10;2.50;;;;;;;;;;4994362;28;20014;-73
2022/05/21 12:14:06;;;;;;;3.63;2.13;;;;;;;;;;5006510;28;20482;-72
2022/05/21 12:16:33;;;;;;;4.88;2.42;;;;;;;;;;5021628;28;20051;-72
2022/05/21 12:19:00;;;;;;;3.72;2.20;;;;;;;;;;5007375;28;20029;-72
2022/05/21 12:21:44;;;;;;;3.30;2.20;;;;;;;;;;4991716;28;20036;-71
2022/05/21 12:24:10;;;;;;;4.25;2.25;;;;;;;;;;4989088;28;20556;-72
2022/05/21 12:26:37;;;;;;;5.10;2.40;;;;;;;;;;4999540;28;20025;-72
2022/05/21 12:29:22;;;;;;;3.65;2.50;;;;;;;;;;4991402;28;20627;-72
2022/05/21 12:31:50;;;;;;;4.35;2.28;;;;;;;;;;4992587;28;20030;-71
2022/05/21 12:34:25;;;;;;;4.38;2.17;;;;;;;;;;4999853;28;20026;-73
2022/05/21 12:36:51;;;;;;;5.63;2.55;;;;;;;;;;4995462;28;20034;-72
2022/05/21 12:39:22;;;;;;;4.90;2.53;;;;;;;;;;4998293;28;20093;-72
2022/05/21 12:41:50;;;;;;;7.10;2.60;;;;;;;;;;5000135;28;20070;-72
2022/05/21 12:44:35;;;;;;;3.72;2.00;;;;;;;;;;4996820;28;20104;-72
2022/05/21 12:47:02;;;;;;;5.15;2.53;;;;;;;;;;4983833;28;20054;-72
2022/05/21 12:49:28;;;;;;;7.30;2.45;;;;;;;;;;5016801;28;20175;-74
2022/05/21 12:51:54;;;;;;;2.78;2.22;;;;;;;;;;5001623;28;20041;-72
2022/05/21 12:54:25;;;;;;;4.00;2.38;;;;;;;;;;4998087;28;20161;-74
2022/05/21 12:56:52;;;;;;;6.85;2.60;;;;;;;;;;4993921;28;20041;-73
2022/05/21 12:59:27;;;;;;;3.60;2.10;;;;;;;;;;4991325;28;20038;-73
2022/05/21 13:01:56;;;;;;;3.35;2.03;;;;;;;;;;4995183;28;20395;-75
2022/05/21 13:04:32;;;;;;;8.75;2.40;;;;;;;;;;4992955;28;20029;-73
2022/05/21 13:07:17;;;;;;;5.32;2.50;;;;;;;;;;4988416;28;20030;-75
2022/05/21 13:09:59;;;;;;;2.55;2.30;;;;;;;;;;5000253;28;20036;-73
2022/05/21 13:12:27;;;;;;;5.90;2.50;;;;;;;;;;4988105;28;20045;-72
2022/05/21 13:14:53;;;;;;;2.88;2.33;;;;;;;;;;4986965;28;20026;-73
2022/05/21 13:17:29;;;;;;;5.30;2.33;;;;;;;;;;4985182;28;20879;-72
2022/05/21 13:20:15;;;;;;;4.55;1.83;;;;;;;;;;4985860;28;20050;-73
2022/05/21 13:22:50;;;;;;;5.85;2.22;;;;;;;;;;4987524;28;20033;-74
2022/05/21 13:25:16;;;;;;;9.90;3.95;;;;;;;;;;4999641;28;20046;-74
2022/05/21 13:27:46;;;;;;;20.83;7.45;;;;;;;;;;5002179;28;20413;-75
2022/05/21 13:30:14;;;;;;;6.97;3.00;;;;;;;;;;4992132;28;20031;-74
2022/05/21 13:32:40;;;;;;;8.63;4.30;;;;;;;;;;4996831;28;20162;-73
2022/05/21 13:35:21;;;;;;;5.00;2.78;;;;;;;;;;4992493;28;20556;-74
2022/05/21 13:37:49;;;;;;;5.47;2.60;;;;;;;;;;4990801;28;20029;-74
2022/05/21 13:40:19;;;;;;;4.85;2.58;;;;;;;;;;4994921;28;20116;-73
2022/05/21 13:42:47;;;;;;;4.30;2.22;;;;;;;;;;5000694;28;20237;-74
2022/05/21 13:45:39;;;;;;;3.88;1.98;;;;;;;;;;4994462;28;20647;-74
2022/05/21 13:48:14;;;;;;;4.28;2.28;;;;;;;;;;4987474;28;20153;-73
2022/05/21 13:50:43;;;;;;;7.95;3.20;;;;;;;;;;4984294;28;20080;-72
2022/05/21 13:53:11;;;;;;;5.68;2.33;;;;;;;;;;4982948;28;20022;-73
2022/05/21 13:55:38;;;;;;;5.97;2.33;;;;;;;;;;4981188;28;20030;-73
2022/05/21 13:58:15;;;;;;;4.50;2.30;;;;;;;;;;4986669;28;20054;-73
2022/05/21 14:00:41;;;;;;;3.00;2.20;;;;;;;;;;4987454;28;20537;-73
2022/05/21 14:03:25;;;;;;;4.07;2.00;;;;;;;;;;4990332;28;20079;-73
2022/05/21 14:05:53;;;;;;;4.05;1.88;;;;;;;;;;4987598;28;20182;-74
2022/05/21 14:08:29;;;;;;;6.45;2.72;;;;;;;;;;5000235;28;20041;-73
2022/05/21 14:10:58;;;;;;;4.63;2.88;;;;;;;;;;4992461;28;20022;-73
2022/05/21 14:13:24;;;;;;;10.80;4.90;;;;;;;;;;5002999;28;20030;-73
2022/05/21 14:15:50;;;;;;;6.30;2.58;;;;;;;;;;5008620;28;20077;-73
2022/05/21 14:18:28;;;;;;;7.40;2.20;;;;;;;;;;4982084;28;20038;-73
2022/05/21 14:21:03;;;;;;;5.68;2.50;;;;;;;;;;4999070;28;20037;-73
2022/05/21 14:23:31;;;;;;;6.38;2.30;;;;;;;;;;4989648;28;20402;-73
2022/05/21 14:26:19;;;;;;;4.70;1.98;;;;;;;;;;4983258;28;20106;-73
2022/05/21 14:28:46;;;;;;;3.90;2.33;;;;;;;;;;4992608;28;20037;-73
2022/05/21 14:31:23;;;;;;;5.55;2.13;;;;;;;;;;4991723;28;20080;-73
2022/05/21 14:33:54;;;;;;;3.22;2.38;;;;;;;;;;4983123;28;20061;-72
2022/05/21 14:36:20;;;;;;;;;;;;;;;;;;4988212;28;20032;-73
2022/05/21 14:38:46;;;;;;;6.03;2.20;;;;;;;;;;4990356;28;19913;-73
2022/05/21 14:41:28;;;;;;;4.43;1.92;;;;;;;;;;4999002;28;20029;-73
2022/05/21 14:43:54;;;;;;;3.80;2.38;;;;;;;;;;4992403;28;20053;-74
2022/05/21 14:49:05;;;;;;;5.18;2.55;;;;;;;;;;4991704;28;20073;-76
2022/05/21 14:54:16;;;;;;;4.55;2.65;;;;;;;;;;4999437;28;20049;-76
2022/05/21 14:56:42;;;;;;;4.35;2.30;;;;;;;;;;4985481;28;20085;-75
2022/05/21 14:59:09;;;;;;;4.18;2.50;;;;;;;;;;4993364;28;20026;-76
2022/05/21 15:01:35;;;;;;;7.97;2.42;;;;;;;;;;4992070;28;20042;-76
2022/05/21 15:04:01;;;;;;;4.25;2.55;;;;;;;;;;4994265;28;20029;-76
2022/05/21 15:06:32;;;;;;;6.60;2.58;;;;;;;;;;4987893;28;20038;-77
2022/05/21 15:09:00;;;;;;;3.00;2.08;;;;;;;;;;4983008;28;20030;-77
2022/05/21 15:11:27;;;;;;;3.95;2.25;;;;;;;;;;4988402;28;20060;-77
2022/05/21 15:13:53;;;;;;;2.75;2.00;;;;;;;;;;4996829;28;20100;-75
2022/05/21 15:16:20;;;;;;;5.00;2.63;;;;;;;;;;4994540;28;20036;-76
2022/05/21 15:18:46;;;;;;;4.28;2.20;;;;;;;;;;5003521;28;20029;-77
2022/05/21 15:21:23;;;;;;;4.15;2.50;;;;;;;;;;4997106;28;20047;-78
2022/05/21 15:23:49;;;;;;;3.67;2.47;;;;;;;;;;4999141;28;20051;-74
2022/05/21 15:26:17;;;;;;;5.85;2.25;;;;;;;;;;4990302;28;20030;-73
2022/05/21 15:28:43;;;;;;;6.03;3.30;;;;;;;;;;4984686;28;20116;-73
2022/05/21 15:31:10;;;;;;;3.78;2.17;;;;;;;;;;4990341;28;20075;-73
2022/05/21 15:33:36;;;;;;;9.15;2.20;;;;;;;;;;4992775;28;20596;-73
2022/05/21 15:36:02;;;;;;;4.32;2.10;;;;;;;;;;4998932;28;20096;-73
2022/05/21 15:38:28;;;;;;;4.13;2.33;;;;;;;;;;4997262;28;20026;-74